sensor_id;sensor_type;location;lat;lon;timestamp;P1;durP1;ratioP1;P2;durP2;ratioP2
78004;SDS011;67209;51.698;-0.292;2024-03-22T00:00:54;17.05;;;7.88;;
78004;SDS011;67209;51.698;-0.292;2024-03-22T00:03:20;14.23;;;7.38;;
78004;SDS011;67209;51.698;-0.292;2024-03-22T00:05:46;16.02;;;7.82;;
78004;SDS011;67209;51.698;-0.292;2024-03-22T00:08:13;14.23;;;7.38;;
78004;SDS011;67209;51.698;-0.292;2024-03-22T00:10:39;13.88;;;6.97;;
78004;SDS011;67209;51.698;-0.292;2024-03-22T00:13:05;17.35;;;7.88;;
78004;SDS011;67209;51.698;-0.292;2024-03-22T00:15:31;14.63;;;7.28;;
78004;SDS011;67209;51.698;-0.292;2024-03-22T00:17:57;15.40;;;7.13;;
78004;SDS011;67209;51.698;-0.292;2024-03-22T00:20:23;13.90;;;7.40;;
78004;SDS011;67209;51.698;-0.292;2024-03-22T00:22:49;13.02;;;6.97;;
78004;SDS011;67209;51.698;-0.292;2024-03-22T00:25:15;13.93;;;6.50;;
78004;SDS011;67209;51.698;-0.292;2024-03-22T00:27:41;13.38;;;7.03;;
78004;SDS011;67209;51.698;-0.292;2024-03-22T00:30:07;12.07;;;7.38;;
78004;SDS011;67209;51.698;-0.292;2024-03-22T00:32:33;14.77;;;6.88;;
78004;SDS011;67209;51.698;-0.292;2024-03-22T00:34:59;13.88;;;7.05;;
78004;SDS011;67209;51.698;-0.292;2024-03-22T00:37:26;15.40;;;6.45;;
78004;SDS011;67209;51.698;-0.292;2024-03-22T00:39:53;13.80;;;7.18;;
78004;SDS011;67209;51.698;-0.292;2024-03-22T00:42:19;13.55;;;7.05;;
78004;SDS011;67209;51.698;-0.292;2024-03-22T00:44:45;12.52;;;6.82;;
78004;SDS011;67209;51.698;-0.292;2024-03-22T00:47:11;13.93;;;7.18;;
78004;SDS011;67209;51.698;-0.292;2024-03-22T00:49:37;13.98;;;6.75;;
78004;SDS011;67209;51.698;-0.292;2024-03-22T00:52:03;13.88;;;7.68;;
78004;SDS011;67209;51.698;-0.292;2024-03-22T00:54:29;13.10;;;7.22;;
78004;SDS011;67209;51.698;-0.292;2024-03-22T00:56:55;12.65;;;6.38;;
78004;SDS011;67209;51.698;-0.292;2024-03-22T00:59:21;17.90;;;7.65;;
78004;SDS011;67209;51.698;-0.292;2024-03-22T01:01:47;14.45;;;7.97;;
78004;SDS011;67209;51.698;-0.292;2024-03-22T01:04:13;15.43;;;7.43;;
78004;SDS011;67209;51.698;-0.292;2024-03-22T01:06:39;17.27;;;8.23;;
78004;SDS011;67209;51.698;-0.292;2024-03-22T01:09:06;15.70;;;8.10;;
78004;SDS011;67209;51.698;-0.292;2024-03-22T01:11:32;14.63;;;8.05;;
78004;SDS011;67209;51.698;-0.292;2024-03-22T01:13:58;12.48;;;7.95;;
78004;SDS011;67209;51.698;-0.292;2024-03-22T01:16:24;14.30;;;8.55;;
78004;SDS011;67209;51.698;-0.292;2024-03-22T01:18:50;14.35;;;7.95;;
78004;SDS011;67209;51.698;-0.292;2024-03-22T01:21:16;16.40;;;8.25;;
78004;SDS011;67209;51.698;-0.292;2024-03-22T01:23:42;14.10;;;8.15;;
78004;SDS011;67209;51.698;-0.292;2024-03-22T01:26:08;15.35;;;8.30;;
78004;SDS011;67209;51.698;-0.292;2024-03-22T01:28:34;17.60;;;9.77;;
78004;SDS011;67209;51.698;-0.292;2024-03-22T01:31:00;15.93;;;9.25;;
78004;SDS011;67209;51.698;-0.292;2024-03-22T01:33:26;19.80;;;9.52;;
78004;SDS011;67209;51.698;-0.292;2024-03-22T01:35:52;17.70;;;8.60;;
78004;SDS011;67209;51.698;-0.292;2024-03-22T01:38:18;20.95;;;9.00;;
78004;SDS011;67209;51.698;-0.292;2024-03-22T01:40:44;19.73;;;9.35;;
78004;SDS011;67209;51.698;-0.292;2024-03-22T01:43:10;20.65;;;9.93;;
78004;SDS011;67209;51.698;-0.292;2024-03-22T01:45:36;18.88;;;9.48;;
78004;SDS011;67209;51.698;-0.292;2024-03-22T01:48:03;15.95;;;9.70;;
78004;SDS011;67209;51.698;-0.292;2024-03-22T01:50:29;18.50;;;9.52;;
78004;SDS011;67209;51.698;-0.292;2024-03-22T01:52:55;16.75;;;9.18;;
78004;SDS011;67209;51.698;-0.292;2024-03-22T01:55:22;17.63;;;9.13;;
78004;SDS011;67209;51.698;-0.292;2024-03-22T01:57:49;16.67;;;9.15;;
78004;SDS011;67209;51.698;-0.292;2024-03-22T02:00:15;17.92;;;9.45;;
78004;SDS011;67209;51.698;-0.292;2024-03-22T02:02:41;20.85;;;9.23;;
78004;SDS011;67209;51.698;-0.292;2024-03-22T02:07:40;17.60;;;9.70;;
78004;SDS011;67209;51.698;-0.292;2024-03-22T02:10:06;20.45;;;9.38;;
78004;SDS011;67209;51.698;-0.292;2024-03-22T02:12:33;18.58;;;10.10;;
78004;SDS011;67209;51.698;-0.292;2024-03-22T02:14:59;18.05;;;9.27;;
78004;SDS011;67209;51.698;-0.292;2024-03-22T02:17:25;18.40;;;10.25;;
78004;SDS011;67209;51.698;-0.292;2024-03-22T02:19:51;20.85;;;9.77;;
78004;SDS011;67209;51.698;-0.292;2024-03-22T02:22:17;18.63;;;10.43;;
78004;SDS011;67209;51.698;-0.292;2024-03-22T02:24:44;19.85;;;10.52;;
78004;SDS011;67209;51.698;-0.292;2024-03-22T02:27:10;25.10;;;10.95;;
78004;SDS011;67209;51.698;-0.292;2024-03-22T02:29:36;18.67;;;9.63;;
78004;SDS011;67209;51.698;-0.292;2024-03-22T02:32:02;21.25;;;10.20;;
78004;SDS011;67209;51.698;-0.292;2024-03-22T02:34:28;27.02;;;10.98;;
78004;SDS011;67209;51.698;-0.292;2024-03-22T02:36:54;19.30;;;10.30;;
78004;SDS011;67209;51.698;-0.292;2024-03-22T02:39:20;21.92;;;10.20;;
78004;SDS011;67209;51.698;-0.292;2024-03-22T02:41:46;22.95;;;10.02;;
78004;SDS011;67209;51.698;-0.292;2024-03-22T02:44:12;21.55;;;10.73;;
78004;SDS011;67209;51.698;-0.292;2024-03-22T02:46:38;21.65;;;10.30;;
78004;SDS011;67209;51.698;-0.292;2024-03-22T02:49:04;22.23;;;10.57;;
78004;SDS011;67209;51.698;-0.292;2024-03-22T02:51:30;21.13;;;10.50;;
78004;SDS011;67209;51.698;-0.292;2024-03-22T02:53:57;18.77;;;10.00;;
78004;SDS011;67209;51.698;-0.292;2024-03-22T02:56:23;20.58;;;10.30;;
78004;SDS011;67209;51.698;-0.292;2024-03-22T02:58:49;19.02;;;9.98;;
78004;SDS011;67209;51.698;-0.292;2024-03-22T03:01:15;20.38;;;9.98;;
78004;SDS011;67209;51.698;-0.292;2024-03-22T03:03:41;20.85;;;9.95;;
78004;SDS011;67209;51.698;-0.292;2024-03-22T03:06:07;22.17;;;11.65;;
78004;SDS011;67209;51.698;-0.292;2024-03-22T03:08:33;20.77;;;10.23;;
78004;SDS011;67209;51.698;-0.292;2024-03-22T03:10:59;22.13;;;10.20;;
78004;SDS011;67209;51.698;-0.292;2024-03-22T03:13:25;20.02;;;9.60;;
78004;SDS011;67209;51.698;-0.292;2024-03-22T03:15:53;18.00;;;9.85;;
78004;SDS011;67209;51.698;-0.292;2024-03-22T03:18:19;21.80;;;10.52;;
78004;SDS011;67209;51.698;-0.292;2024-03-22T03:20:45;18.60;;;9.65;;
78004;SDS011;67209;51.698;-0.292;2024-03-22T03:23:11;21.13;;;9.85;;
78004;SDS011;67209;51.698;-0.292;2024-03-22T03:25:37;19.92;;;9.82;;
78004;SDS011;67209;51.698;-0.292;2024-03-22T03:28:04;16.77;;;9.20;;
78004;SDS011;67209;51.698;-0.292;2024-03-22T03:30:31;16.05;;;8.43;;
78004;SDS011;67209;51.698;-0.292;2024-03-22T03:32:57;18.52;;;8.40;;
78004;SDS011;67209;51.698;-0.292;2024-03-22T03:35:23;15.77;;;8.48;;
78004;SDS011;67209;51.698;-0.292;2024-03-22T03:37:51;16.30;;;8.40;;
78004;SDS011;67209;51.698;-0.292;2024-03-22T03:40:17;17.73;;;8.52;;
78004;SDS011;67209;51.698;-0.292;2024-03-22T03:42:43;16.00;;;7.90;;
78004;SDS011;67209;51.698;-0.292;2024-03-22T03:45:09;13.48;;;7.82;;
78004;SDS011;67209;51.698;-0.292;2024-03-22T03:47:35;13.20;;;7.07;;
78004;SDS011;67209;51.698;-0.292;2024-03-22T03:50:01;12.23;;;7.45;;
78004;SDS011;67209;51.698;-0.292;2024-03-22T03:52:27;12.35;;;6.00;;
78004;SDS011;67209;51.698;-0.292;2024-03-22T03:54:53;12.55;;;6.30;;
78004;SDS011;67209;51.698;-0.292;2024-03-22T03:57:19;13.00;;;6.40;;
78004;SDS011;67209;51.698;-0.292;2024-03-22T03:59:45;13.43;;;6.55;;
78004;SDS011;67209;51.698;-0.292;2024-03-22T04:02:11;12.27;;;6.55;;
78004;SDS011;67209;51.698;-0.292;2024-03-22T04:04:37;11.95;;;6.25;;
78004;SDS011;67209;51.698;-0.292;2024-03-22T04:07:03;12.38;;;6.00;;
78004;SDS011;67209;51.698;-0.292;2024-03-22T04:09:29;11.63;;;5.88;;
78004;SDS011;67209;51.698;-0.292;2024-03-22T04:11:57;12.98;;;6.63;;
78004;SDS011;67209;51.698;-0.292;2024-03-22T04:14:24;12.23;;;6.15;;
78004;SDS011;67209;51.698;-0.292;2024-03-22T04:16:50;10.80;;;5.10;;
78004;SDS011;67209;51.698;-0.292;2024-03-22T04:19:16;10.52;;;5.97;;
78004;SDS011;67209;51.698;-0.292;2024-03-22T04:21:42;9.05;;;4.78;;
78004;SDS011;67209;51.698;-0.292;2024-03-22T04:24:08;10.82;;;4.93;;
78004;SDS011;67209;51.698;-0.292;2024-03-22T04:26:34;10.25;;;5.05;;
78004;SDS011;67209;51.698;-0.292;2024-03-22T04:29:00;10.65;;;4.95;;
78004;SDS011;67209;51.698;-0.292;2024-03-22T04:31:26;10.93;;;5.70;;
78004;SDS011;67209;51.698;-0.292;2024-03-22T04:33:52;10.80;;;5.13;;
78004;SDS011;67209;51.698;-0.292;2024-03-22T04:36:18;10.93;;;5.93;;
78004;SDS011;67209;51.698;-0.292;2024-03-22T04:38:44;9.45;;;5.28;;
78004;SDS011;67209;51.698;-0.292;2024-03-22T04:41:10;9.50;;;5.10;;
78004;SDS011;67209;51.698;-0.292;2024-03-22T04:43:36;8.35;;;4.95;;
78004;SDS011;67209;51.698;-0.292;2024-03-22T04:46:02;10.55;;;5.20;;
78004;SDS011;67209;51.698;-0.292;2024-03-22T04:48:28;10.27;;;5.20;;
78004;SDS011;67209;51.698;-0.292;2024-03-22T04:50:55;12.25;;;6.10;;
78004;SDS011;67209;51.698;-0.292;2024-03-22T04:53:21;9.02;;;4.60;;
78004;SDS011;67209;51.698;-0.292;2024-03-22T04:55:47;11.80;;;5.13;;
78004;SDS011;67209;51.698;-0.292;2024-03-22T04:58:14;9.13;;;5.22;;
78004;SDS011;67209;51.698;-0.292;2024-03-22T05:00:43;8.80;;;4.80;;
78004;SDS011;67209;51.698;-0.292;2024-03-22T05:03:09;8.38;;;4.90;;
78004;SDS011;67209;51.698;-0.292;2024-03-22T05:05:35;10.52;;;4.93;;
78004;SDS011;67209;51.698;-0.292;2024-03-22T05:08:02;8.88;;;5.05;;
78004;SDS011;67209;51.698;-0.292;2024-03-22T05:10:28;8.98;;;5.30;;
78004;SDS011;67209;51.698;-0.292;2024-03-22T05:12:55;9.80;;;5.18;;
78004;SDS011;67209;51.698;-0.292;2024-03-22T05:15:21;8.35;;;4.35;;
78004;SDS011;67209;51.698;-0.292;2024-03-22T05:17:48;9.65;;;4.97;;
78004;SDS011;67209;51.698;-0.292;2024-03-22T05:20:14;10.13;;;4.65;;
78004;SDS011;67209;51.698;-0.292;2024-03-22T05:22:41;8.10;;;4.30;;
78004;SDS011;67209;51.698;-0.292;2024-03-22T05:25:07;7.85;;;4.07;;
78004;SDS011;67209;51.698;-0.292;2024-03-22T05:27:34;7.30;;;4.25;;
78004;SDS011;67209;51.698;-0.292;2024-03-22T05:30:00;7.05;;;4.15;;
78004;SDS011;67209;51.698;-0.292;2024-03-22T05:32:26;7.07;;;3.45;;
78004;SDS011;67209;51.698;-0.292;2024-03-22T05:34:52;4.85;;;3.33;;
78004;SDS011;67209;51.698;-0.292;2024-03-22T05:37:19;6.35;;;3.25;;
78004;SDS011;67209;51.698;-0.292;2024-03-22T05:39:45;7.20;;;3.33;;
78004;SDS011;67209;51.698;-0.292;2024-03-22T05:42:11;5.35;;;3.58;;
78004;SDS011;67209;51.698;-0.292;2024-03-22T05:44:37;5.90;;;3.17;;
78004;SDS011;67209;51.698;-0.292;2024-03-22T05:47:03;5.68;;;2.95;;
78004;SDS011;67209;51.698;-0.292;2024-03-22T05:49:29;5.97;;;3.22;;
78004;SDS011;67209;51.698;-0.292;2024-03-22T05:51:55;7.20;;;3.03;;
78004;SDS011;67209;51.698;-0.292;2024-03-22T05:54:21;6.13;;;3.33;;
78004;SDS011;67209;51.698;-0.292;2024-03-22T05:56:47;5.20;;;3.00;;
78004;SDS011;67209;51.698;-0.292;2024-03-22T05:59:13;7.90;;;3.38;;
78004;SDS011;67209;51.698;-0.292;2024-03-22T06:01:39;4.53;;;3.17;;
78004;SDS011;67209;51.698;-0.292;2024-03-22T06:04:05;4.63;;;2.63;;
78004;SDS011;67209;51.698;-0.292;2024-03-22T06:06:32;5.20;;;2.72;;
78004;SDS011;67209;51.698;-0.292;2024-03-22T06:08:58;5.57;;;3.10;;
78004;SDS011;67209;51.698;-0.292;2024-03-22T06:11:28;5.28;;;2.90;;
78004;SDS011;67209;51.698;-0.292;2024-03-22T06:13:54;4.00;;;2.45;;
78004;SDS011;67209;51.698;-0.292;2024-03-22T06:16:20;6.13;;;3.38;;
78004;SDS011;67209;51.698;-0.292;2024-03-22T06:18:47;8.52;;;2.78;;
78004;SDS011;67209;51.698;-0.292;2024-03-22T06:21:13;5.72;;;2.88;;
78004;SDS011;67209;51.698;-0.292;2024-03-22T06:23:48;4.15;;;2.63;;
78004;SDS011;67209;51.698;-0.292;2024-03-22T06:26:15;4.28;;;2.83;;
78004;SDS011;67209;51.698;-0.292;2024-03-22T06:28:41;4.35;;;2.70;;
78004;SDS011;67209;51.698;-0.292;2024-03-22T06:31:07;3.85;;;2.40;;
78004;SDS011;67209;51.698;-0.292;2024-03-22T06:33:33;5.68;;;2.63;;
78004;SDS011;67209;51.698;-0.292;2024-03-22T06:35:59;4.47;;;2.75;;
78004;SDS011;67209;51.698;-0.292;2024-03-22T06:38:26;3.53;;;2.47;;
78004;SDS011;67209;51.698;-0.292;2024-03-22T06:40:52;6.13;;;3.15;;
78004;SDS011;67209;51.698;-0.292;2024-03-22T06:43:18;4.53;;;2.45;;
78004;SDS011;67209;51.698;-0.292;2024-03-22T06:45:44;5.63;;;2.63;;
78004;SDS011;67209;51.698;-0.292;2024-03-22T06:48:10;5.95;;;2.67;;
78004;SDS011;67209;51.698;-0.292;2024-03-22T06:50:36;5.88;;;2.53;;
78004;SDS011;67209;51.698;-0.292;2024-03-22T06:53:02;4.70;;;2.80;;
78004;SDS011;67209;51.698;-0.292;2024-03-22T06:55:28;5.82;;;2.63;;
78004;SDS011;67209;51.698;-0.292;2024-03-22T06:57:54;4.82;;;2.38;;
78004;SDS011;67209;51.698;-0.292;2024-03-22T07:00:20;4.63;;;2.53;;
78004;SDS011;67209;51.698;-0.292;2024-03-22T07:02:46;5.90;;;2.72;;
78004;SDS011;67209;51.698;-0.292;2024-03-22T07:05:12;5.53;;;2.60;;
78004;SDS011;67209;51.698;-0.292;2024-03-22T07:07:38;5.90;;;2.88;;
78004;SDS011;67209;51.698;-0.292;2024-03-22T07:10:05;5.10;;;2.97;;
78004;SDS011;67209;51.698;-0.292;2024-03-22T07:12:34;7.38;;;3.40;;
78004;SDS011;67209;51.698;-0.292;2024-03-22T07:15:00;6.30;;;3.45;;
78004;SDS011;67209;51.698;-0.292;2024-03-22T07:17:27;5.80;;;2.88;;
78004;SDS011;67209;51.698;-0.292;2024-03-22T07:19:54;7.93;;;3.22;;
78004;SDS011;67209;51.698;-0.292;2024-03-22T07:22:21;8.05;;;3.20;;
78004;SDS011;67209;51.698;-0.292;2024-03-22T07:24:47;6.82;;;3.05;;
78004;SDS011;67209;51.698;-0.292;2024-03-22T07:27:14;5.35;;;3.30;;
78004;SDS011;67209;51.698;-0.292;2024-03-22T07:29:40;6.05;;;3.25;;
78004;SDS011;67209;51.698;-0.292;2024-03-22T07:32:06;7.82;;;3.85;;
78004;SDS011;67209;51.698;-0.292;2024-03-22T07:34:32;9.10;;;4.45;;
78004;SDS011;67209;51.698;-0.292;2024-03-22T07:36:59;11.70;;;4.95;;
78004;SDS011;67209;51.698;-0.292;2024-03-22T07:39:25;12.68;;;5.47;;
78004;SDS011;67209;51.698;-0.292;2024-03-22T07:41:51;11.43;;;5.47;;
78004;SDS011;67209;51.698;-0.292;2024-03-22T07:44:17;10.85;;;6.03;;
78004;SDS011;67209;51.698;-0.292;2024-03-22T07:46:45;12.77;;;5.63;;
78004;SDS011;67209;51.698;-0.292;2024-03-22T07:49:11;22.35;;;7.28;;
78004;SDS011;67209;51.698;-0.292;2024-03-22T07:51:38;12.82;;;6.13;;
78004;SDS011;67209;51.698;-0.292;2024-03-22T07:54:04;12.48;;;6.30;;
78004;SDS011;67209;51.698;-0.292;2024-03-22T07:56:30;14.98;;;7.15;;
78004;SDS011;67209;51.698;-0.292;2024-03-22T07:58:56;14.63;;;6.60;;
78004;SDS011;67209;51.698;-0.292;2024-03-22T08:01:22;15.73;;;6.38;;
78004;SDS011;67209;51.698;-0.292;2024-03-22T08:03:49;10.95;;;6.20;;
78004;SDS011;67209;51.698;-0.292;2024-03-22T08:06:15;14.15;;;6.78;;
78004;SDS011;67209;51.698;-0.292;2024-03-22T08:08:41;32.53;;;8.45;;
78004;SDS011;67209;51.698;-0.292;2024-03-22T08:11:07;15.23;;;7.13;;
78004;SDS011;67209;51.698;-0.292;2024-03-22T08:13:34;14.50;;;6.40;;
78004;SDS011;67209;51.698;-0.292;2024-03-22T08:16:00;15.25;;;7.00;;
78004;SDS011;67209;51.698;-0.292;2024-03-22T08:18:26;12.05;;;5.68;;
78004;SDS011;67209;51.698;-0.292;2024-03-22T08:20:52;87.07;;;11.98;;
78004;SDS011;67209;51.698;-0.292;2024-03-22T08:23:18;11.85;;;5.82;;
78004;SDS011;67209;51.698;-0.292;2024-03-22T08:25:45;14.20;;;5.53;;
78004;SDS011;67209;51.698;-0.292;2024-03-22T08:28:11;12.63;;;5.72;;
78004;SDS011;67209;51.698;-0.292;2024-03-22T08:30:41;12.07;;;5.20;;
78004;SDS011;67209;51.698;-0.292;2024-03-22T08:33:07;10.85;;;5.47;;
78004;SDS011;67209;51.698;-0.292;2024-03-22T08:35:33;11.32;;;6.07;;
78004;SDS011;67209;51.698;-0.292;2024-03-22T08:37:59;12.18;;;5.45;;
78004;SDS011;67209;51.698;-0.292;2024-03-22T08:40:25;10.57;;;5.20;;
78004;SDS011;67209;51.698;-0.292;2024-03-22T08:42:52;10.32;;;5.50;;
78004;SDS011;67209;51.698;-0.292;2024-03-22T08:45:18;9.20;;;5.25;;
78004;SDS011;67209;51.698;-0.292;2024-03-22T08:47:44;11.90;;;5.75;;
78004;SDS011;67209;51.698;-0.292;2024-03-22T08:50:13;10.00;;;5.70;;
78004;SDS011;67209;51.698;-0.292;2024-03-22T08:52:39;11.18;;;5.47;;
78004;SDS011;67209;51.698;-0.292;2024-03-22T08:55:06;10.07;;;5.32;;
78004;SDS011;67209;51.698;-0.292;2024-03-22T08:57:32;10.93;;;5.88;;
78004;SDS011;67209;51.698;-0.292;2024-03-22T08:59:58;11.88;;;5.85;;
78004;SDS011;67209;51.698;-0.292;2024-03-22T09:02:24;9.05;;;4.97;;
78004;SDS011;67209;51.698;-0.292;2024-03-22T09:04:51;8.77;;;4.88;;
78004;SDS011;67209;51.698;-0.292;2024-03-22T09:07:18;10.65;;;5.53;;
78004;SDS011;67209;51.698;-0.292;2024-03-22T09:09:44;10.93;;;5.43;;
78004;SDS011;67209;51.698;-0.292;2024-03-22T09:12:10;9.18;;;5.30;;
78004;SDS011;67209;51.698;-0.292;2024-03-22T09:14:36;10.40;;;5.75;;
78004;SDS011;67209;51.698;-0.292;2024-03-22T09:17:02;9.65;;;5.20;;
78004;SDS011;67209;51.698;-0.292;2024-03-22T09:19:29;8.85;;;4.90;;
78004;SDS011;67209;51.698;-0.292;2024-03-22T09:21:55;12.15;;;4.88;;
78004;SDS011;67209;51.698;-0.292;2024-03-22T09:24:21;7.93;;;4.65;;
78004;SDS011;67209;51.698;-0.292;2024-03-22T09:26:47;8.85;;;4.53;;
78004;SDS011;67209;51.698;-0.292;2024-03-22T09:29:13;7.50;;;4.32;;
78004;SDS011;67209;51.698;-0.292;2024-03-22T09:31:39;6.10;;;4.18;;
78004;SDS011;67209;51.698;-0.292;2024-03-22T09:34:08;8.93;;;4.00;;
78004;SDS011;67209;51.698;-0.292;2024-03-22T09:36:34;8.90;;;4.13;;
78004;SDS011;67209;51.698;-0.292;2024-03-22T09:39:03;7.78;;;3.88;;
78004;SDS011;67209;51.698;-0.292;2024-03-22T09:41:31;6.20;;;3.38;;
78004;SDS011;67209;51.698;-0.292;2024-03-22T09:43:58;6.68;;;3.17;;
78004;SDS011;67209;51.698;-0.292;2024-03-22T09:46:25;5.80;;;3.30;;
78004;SDS011;67209;51.698;-0.292;2024-03-22T09:48:52;5.28;;;3.22;;
78004;SDS011;67209;51.698;-0.292;2024-03-22T09:51:19;5.93;;;2.78;;
78004;SDS011;67209;51.698;-0.292;2024-03-22T09:53:49;8.82;;;2.30;;
78004;SDS011;67209;51.698;-0.292;2024-03-22T09:56:17;4.32;;;1.88;;
78004;SDS011;67209;51.698;-0.292;2024-03-22T09:58:46;3.88;;;1.65;;
78004;SDS011;67209;51.698;-0.292;2024-03-22T10:01:13;5.25;;;1.20;;
78004;SDS011;67209;51.698;-0.292;2024-03-22T10:03:39;3.00;;;1.10;;
78004;SDS011;67209;51.698;-0.292;2024-03-22T10:06:06;3.38;;;0.80;;
78004;SDS011;67209;51.698;-0.292;2024-03-22T10:08:32;3.05;;;0.70;;
78004;SDS011;67209;51.698;-0.292;2024-03-22T10:11:01;4.47;;;0.77;;
78004;SDS011;67209;51.698;-0.292;2024-03-22T10:13:28;4.35;;;0.75;;
78004;SDS011;67209;51.698;-0.292;2024-03-22T10:15:54;5.53;;;1.45;;
78004;SDS011;67209;51.698;-0.292;2024-03-22T10:18:20;4.75;;;1.17;;
78004;SDS011;67209;51.698;-0.292;2024-03-22T10:20:47;4.75;;;1.00;;
78004;SDS011;67209;51.698;-0.292;2024-03-22T10:23:13;4.55;;;1.20;;
78004;SDS011;67209;51.698;-0.292;2024-03-22T10:25:40;6.20;;;1.30;;
78004;SDS011;67209;51.698;-0.292;2024-03-22T10:28:06;6.47;;;2.00;;
78004;SDS011;67209;51.698;-0.292;2024-03-22T10:30:32;6.70;;;1.00;;
78004;SDS011;67209;51.698;-0.292;2024-03-22T10:33:01;6.80;;;1.27;;
78004;SDS011;67209;51.698;-0.292;2024-03-22T10:35:28;5.30;;;1.00;;
78004;SDS011;67209;51.698;-0.292;2024-03-22T10:37:55;4.32;;;1.23;;
78004;SDS011;67209;51.698;-0.292;2024-03-22T10:40:21;6.88;;;1.30;;
78004;SDS011;67209;51.698;-0.292;2024-03-22T10:42:47;12.32;;;1.27;;
78004;SDS011;67209;51.698;-0.292;2024-03-22T10:45:13;9.80;;;1.80;;
78004;SDS011;67209;51.698;-0.292;2024-03-22T10:47:39;10.48;;;1.90;;
78004;SDS011;67209;51.698;-0.292;2024-03-22T10:50:09;5.95;;;1.70;;
78004;SDS011;67209;51.698;-0.292;2024-03-22T10:52:45;10.23;;;1.60;;
78004;SDS011;67209;51.698;-0.292;2024-03-22T10:55:23;9.63;;;1.80;;
78004;SDS011;67209;51.698;-0.292;2024-03-22T10:57:53;5.65;;;1.42;;
78004;SDS011;67209;51.698;-0.292;2024-03-22T11:00:26;9.60;;;1.52;;
78004;SDS011;67209;51.698;-0.292;2024-03-22T11:02:53;9.82;;;1.70;;
78004;SDS011;67209;51.698;-0.292;2024-03-22T11:05:19;9.27;;;1.90;;
78004;SDS011;67209;51.698;-0.292;2024-03-22T11:07:45;8.38;;;1.15;;
78004;SDS011;67209;51.698;-0.292;2024-03-22T11:10:12;7.30;;;1.38;;
78004;SDS011;67209;51.698;-0.292;2024-03-22T11:12:41;8.63;;;1.48;;
78004;SDS011;67209;51.698;-0.292;2024-03-22T11:15:08;8.05;;;1.63;;
78004;SDS011;67209;51.698;-0.292;2024-03-22T11:17:37;9.65;;;1.92;;
78004;SDS011;67209;51.698;-0.292;2024-03-22T11:20:03;9.10;;;1.77;;
78004;SDS011;67209;51.698;-0.292;2024-03-22T11:22:31;8.25;;;1.13;;
78004;SDS011;67209;51.698;-0.292;2024-03-22T11:24:57;7.95;;;1.10;;
78004;SDS011;67209;51.698;-0.292;2024-03-22T11:27:23;6.78;;;1.50;;
78004;SDS011;67209;51.698;-0.292;2024-03-22T11:29:51;7.85;;;1.30;;
78004;SDS011;67209;51.698;-0.292;2024-03-22T11:32:19;5.95;;;1.55;;
78004;SDS011;67209;51.698;-0.292;2024-03-22T11:34:45;4.70;;;1.42;;
78004;SDS011;67209;51.698;-0.292;2024-03-22T11:37:12;9.10;;;1.83;;
78004;SDS011;67209;51.698;-0.292;2024-03-22T11:39:39;6.53;;;1.20;;
78004;SDS011;67209;51.698;-0.292;2024-03-22T11:42:05;13.48;;;1.95;;
78004;SDS011;67209;51.698;-0.292;2024-03-22T11:44:32;8.52;;;1.48;;
78004;SDS011;67209;51.698;-0.292;2024-03-22T11:46:59;8.85;;;1.65;;
78004;SDS011;67209;51.698;-0.292;2024-03-22T11:49:25;6.38;;;1.40;;
78004;SDS011;67209;51.698;-0.292;2024-03-22T11:51:52;7.35;;;1.25;;
78004;SDS011;67209;51.698;-0.292;2024-03-22T11:54:21;5.50;;;1.40;;
78004;SDS011;67209;51.698;-0.292;2024-03-22T11:56:48;10.35;;;1.60;;
78004;SDS011;67209;51.698;-0.292;2024-03-22T11:59:14;9.73;;;1.38;;
78004;SDS011;67209;51.698;-0.292;2024-03-22T12:01:40;10.27;;;1.45;;
78004;SDS011;67209;51.698;-0.292;2024-03-22T12:04:06;8.93;;;1.38;;
78004;SDS011;67209;51.698;-0.292;2024-03-22T12:06:36;5.97;;;1.00;;
78004;SDS011;67209;51.698;-0.292;2024-03-22T12:09:02;6.18;;;1.58;;
78004;SDS011;67209;51.698;-0.292;2024-03-22T12:11:32;5.55;;;1.05;;
78004;SDS011;67209;51.698;-0.292;2024-03-22T12:13:58;7.10;;;1.25;;
78004;SDS011;67209;51.698;-0.292;2024-03-22T12:16:24;7.95;;;1.02;;
78004;SDS011;67209;51.698;-0.292;2024-03-22T12:18:50;9.85;;;1.60;;
78004;SDS011;67209;51.698;-0.292;2024-03-22T12:21:16;8.68;;;1.38;;
78004;SDS011;67209;51.698;-0.292;2024-03-22T12:23:42;6.32;;;1.20;;
78004;SDS011;67209;51.698;-0.292;2024-03-22T12:26:08;11.27;;;1.38;;
78004;SDS011;67209;51.698;-0.292;2024-03-22T12:28:34;6.50;;;1.00;;
78004;SDS011;67209;51.698;-0.292;2024-03-22T12:31:00;5.78;;;1.20;;
78004;SDS011;67209;51.698;-0.292;2024-03-22T12:33:26;8.85;;;1.52;;
78004;SDS011;67209;51.698;-0.292;2024-03-22T12:35:52;7.10;;;1.20;;
78004;SDS011;67209;51.698;-0.292;2024-03-22T12:38:18;7.07;;;1.33;;
78004;SDS011;67209;51.698;-0.292;2024-03-22T12:40:44;5.68;;;1.15;;
78004;SDS011;67209;51.698;-0.292;2024-03-22T12:43:10;8.75;;;1.50;;
78004;SDS011;67209;51.698;-0.292;2024-03-22T12:45:37;9.70;;;1.33;;
78004;SDS011;67209;51.698;-0.292;2024-03-22T12:48:03;7.78;;;1.23;;
78004;SDS011;67209;51.698;-0.292;2024-03-22T12:50:29;8.02;;;1.00;;
78004;SDS011;67209;51.698;-0.292;2024-03-22T12:52:55;9.57;;;1.70;;
78004;SDS011;67209;51.698;-0.292;2024-03-22T12:55:22;6.28;;;1.77;;
78004;SDS011;67209;51.698;-0.292;2024-03-22T12:57:48;7.10;;;1.38;;
78004;SDS011;67209;51.698;-0.292;2024-03-22T13:00:14;11.38;;;1.35;;
78004;SDS011;67209;51.698;-0.292;2024-03-22T13:02:43;15.18;;;1.80;;
78004;SDS011;67209;51.698;-0.292;2024-03-22T13:05:10;7.50;;;1.40;;
78004;SDS011;67209;51.698;-0.292;2024-03-22T13:07:36;13.98;;;1.77;;
78004;SDS011;67209;51.698;-0.292;2024-03-22T13:10:02;9.52;;;1.25;;
78004;SDS011;67209;51.698;-0.292;2024-03-22T13:12:28;5.68;;;1.20;;
78004;SDS011;67209;51.698;-0.292;2024-03-22T13:14:59;11.25;;;2.13;;
78004;SDS011;67209;51.698;-0.292;2024-03-22T13:17:25;11.80;;;2.00;;
78004;SDS011;67209;51.698;-0.292;2024-03-22T13:19:51;6.85;;;1.35;;
78004;SDS011;67209;51.698;-0.292;2024-03-22T13:22:17;8.43;;;1.33;;
78004;SDS011;67209;51.698;-0.292;2024-03-22T13:24:47;5.57;;;1.30;;
78004;SDS011;67209;51.698;-0.292;2024-03-22T13:27:15;9.57;;;1.58;;
78004;SDS011;67209;51.698;-0.292;2024-03-22T13:29:41;9.15;;;1.38;;
78004;SDS011;67209;51.698;-0.292;2024-03-22T13:32:08;9.30;;;2.13;;
78004;SDS011;67209;51.698;-0.292;2024-03-22T13:34:37;8.82;;;1.23;;
78004;SDS011;67209;51.698;-0.292;2024-03-22T13:37:03;9.02;;;1.75;;
78004;SDS011;67209;51.698;-0.292;2024-03-22T13:39:31;6.20;;;1.30;;
78004;SDS011;67209;51.698;-0.292;2024-03-22T13:41:57;9.43;;;1.52;;
78004;SDS011;67209;51.698;-0.292;2024-03-22T13:44:24;7.38;;;1.35;;
78004;SDS011;67209;51.698;-0.292;2024-03-22T13:46:50;8.60;;;1.38;;
78004;SDS011;67209;51.698;-0.292;2024-03-22T13:49:17;12.13;;;1.40;;
78004;SDS011;67209;51.698;-0.292;2024-03-22T13:51:45;6.20;;;1.65;;
78004;SDS011;67209;51.698;-0.292;2024-03-22T13:54:11;9.45;;;1.88;;
78004;SDS011;67209;51.698;-0.292;2024-03-22T13:56:37;10.57;;;2.08;;
78004;SDS011;67209;51.698;-0.292;2024-03-22T13:59:04;11.32;;;1.60;;
78004;SDS011;67209;51.698;-0.292;2024-03-22T14:01:33;5.45;;;1.50;;
78004;SDS011;67209;51.698;-0.292;2024-03-22T14:04:00;10.57;;;1.65;;
78004;SDS011;67209;51.698;-0.292;2024-03-22T14:06:26;11.55;;;2.28;;
78004;SDS011;67209;51.698;-0.292;2024-03-22T14:08:52;7.68;;;1.73;;
78004;SDS011;67209;51.698;-0.292;2024-03-22T14:11:25;6.70;;;1.90;;
78004;SDS011;67209;51.698;-0.292;2024-03-22T14:13:51;10.05;;;2.47;;
78004;SDS011;67209;51.698;-0.292;2024-03-22T14:16:17;11.45;;;2.03;;
78004;SDS011;67209;51.698;-0.292;2024-03-22T14:18:43;7.78;;;1.58;;
78004;SDS011;67209;51.698;-0.292;2024-03-22T14:21:09;12.50;;;1.73;;
78004;SDS011;67209;51.698;-0.292;2024-03-22T14:23:36;7.82;;;1.80;;
78004;SDS011;67209;51.698;-0.292;2024-03-22T14:26:02;15.07;;;2.42;;